PWSweather.com
Personal Weather Stations
Station Observations
ON7DKEWX
Knokke Heist, Knokke HeistBE 8300

Knokke HeistKnokke HeistBE 8300

Lat: 51.32199, Lon: 3.28778

Elevation: 5

Station Type: Davis Vantage Pro 2

www.weerstationheist.be

High Low Average
Temperature 72.5°F22.5°C 57.6°F14.2°C 63.8°F17.7°C
Dew Point 60.9°F16.1°C 55.9°F13.3°C 58.5°F14.7°C
Winds 8.1 mph 13.0 kmh Calm Calm 5.0 mph E8.0 kmh E
Wind Gusts 16.1 mph25.9 kmh -- 9.0 mph14.5 kmh
Humidity 94% 57% 84%
Pressure 29.95 in1014.2 mb 29.87 in1011.5 mb -
Precipitation 0.00 in0.0 mm - -
Hour Temp Dew Point Humidity Winds Wind Gusts Pressure Precip Precip Rate Daily Precip Total
12:00 AM 60.0°F15.6°C 57.7°F14.3°C 92% 3.5 mph N5.6 kmh N 8.1 mph13.0 kmh 29.95 in1014.2 mb - 0.00 in0.0 mm 0.00 in0.0 mm
01:00 AM 60.0°F15.6°C 57.7°F14.3°C 92% 2.3 mph N3.7 kmh N 3.5 mph5.6 kmh 29.93 in1013.5 mb - 0.00 in0.0 mm 0.00 in0.0 mm
02:00 AM 59.5°F15.3°C 57.5°F14.2°C 93% Calm Calm -- 29.94 in1013.9 mb - 0.00 in0.0 mm 0.00 in0.0 mm
03:00 AM 59.7°F15.4°C 57.6°F14.2°C 93% 2.3 mph NNE3.7 kmh NNE 5.8 mph9.3 kmh 29.92 in1013.2 mb - 0.00 in0.0 mm 0.00 in0.0 mm
04:00 AM 58.6°F14.8°C 56.6°F13.7°C 93% 2.3 mph NNE3.7 kmh NNE 3.5 mph5.6 kmh 29.91 in1012.9 mb - 0.00 in0.0 mm 0.00 in0.0 mm
05:00 AM 57.6°F14.2°C 55.9°F13.3°C 94% 2.3 mph NNE3.7 kmh NNE 3.5 mph5.6 kmh 29.91 in1012.9 mb - 0.00 in0.0 mm 0.00 in0.0 mm
06:00 AM 58.6°F14.8°C 56.9°F13.8°C 94% 3.5 mph N5.6 kmh N 6.9 mph11.1 kmh 29.90 in1012.5 mb - 0.00 in0.0 mm 0.00 in0.0 mm
07:00 AM 60.7°F15.9°C 57.4°F14.1°C 89% 3.5 mph NE5.6 kmh NE 5.8 mph9.3 kmh 29.92 in1013.2 mb - 0.00 in0.0 mm 0.00 in0.0 mm
08:00 AM 61.5°F16.4°C 57.0°F13.9°C 85% 5.8 mph NE9.3 kmh NE 9.2 mph14.8 kmh 29.92 in1013.2 mb - 0.00 in0.0 mm 0.00 in0.0 mm
09:00 AM 66.2°F19.0°C 59.2°F15.1°C 78% 8.1 mph NE13.0 kmh NE 12.7 mph20.4 kmh 29.91 in1012.9 mb - 0.00 in0.0 mm 0.00 in0.0 mm
10:00 AM 66.7°F19.3°C 58.5°F14.7°C 75% 4.6 mph N7.4 kmh N 9.2 mph14.8 kmh 29.92 in1013.2 mb - 0.00 in0.0 mm 0.00 in0.0 mm
11:00 AM 69.4°F20.8°C 58.0°F14.4°C 67% 5.8 mph NNE9.3 kmh NNE 10.4 mph16.7 kmh 29.91 in1012.9 mb - 0.00 in0.0 mm 0.00 in0.0 mm
12:00 PM 72.5°F22.5°C 56.4°F13.6°C 57% 5.8 mph NNE9.3 kmh NNE 12.7 mph20.4 kmh 29.91 in1012.9 mb - 0.00 in0.0 mm 0.00 in0.0 mm
01:00 PM 69.3°F20.7°C 60.6°F15.9°C 74% 4.6 mph NNW7.4 kmh NNW 10.4 mph16.7 kmh 29.90 in1012.5 mb - 0.00 in0.0 mm 0.00 in0.0 mm
02:00 PM 69.6°F20.9°C 60.9°F16.1°C 74% 4.6 mph NNW7.4 kmh NNW 11.5 mph18.5 kmh 29.88 in1011.9 mb - 0.00 in0.0 mm 0.00 in0.0 mm
03:00 PM 68.5°F20.3°C 60.3°F15.7°C 75% 3.5 mph N5.6 kmh N 8.1 mph13.0 kmh 29.87 in1011.5 mb - 0.00 in0.0 mm 0.00 in0.0 mm
04:00 PM 66.7°F19.3°C 60.4°F15.8°C 80% 3.5 mph N5.6 kmh N 9.2 mph14.8 kmh 29.87 in1011.5 mb - 0.00 in0.0 mm 0.00 in0.0 mm
05:00 PM 67.2°F19.6°C 60.1°F15.6°C 78% 5.8 mph N9.3 kmh N 8.1 mph13.0 kmh 29.87 in1011.5 mb - 0.00 in0.0 mm 0.00 in0.0 mm
06:00 PM 65.7°F18.7°C 60.1°F15.6°C 82% 5.8 mph NNW9.3 kmh NNW 12.7 mph20.4 kmh 29.87 in1011.5 mb - 0.00 in0.0 mm 0.00 in0.0 mm
07:00 PM 64.0°F17.8°C 59.4°F15.2°C 85% 6.9 mph N11.1 kmh N 13.8 mph22.2 kmh 29.87 in1011.5 mb - 0.00 in0.0 mm 0.00 in0.0 mm
08:00 PM 63.1°F17.3°C 59.5°F15.3°C 88% 8.1 mph N13.0 kmh N 16.1 mph25.9 kmh 29.87 in1011.5 mb - 0.00 in0.0 mm 0.00 in0.0 mm
09:00 PM 62.1°F16.7°C 58.8°F14.9°C 89% 6.9 mph 11.1 kmh 11.5 mph18.5 kmh 29.87 in1011.5 mb - 0.00 in0.0 mm 0.00 in0.0 mm
10:00 PM 61.6°F16.4°C 58.6°F14.8°C 90% 5.8 mph N9.3 kmh N 6.9 mph11.1 kmh 29.89 in1012.2 mb - 0.00 in0.0 mm 0.00 in0.0 mm
11:00 PM 61.3°F16.3°C 58.6°F14.8°C 91% 3.5 mph N5.6 kmh N 9.2 mph14.8 kmh 29.89 in1012.2 mb - 0.00 in0.0 mm 0.00 in0.0 mm